sensor_id;sensor_type;location;lat;lon;timestamp;P1;durP1;ratioP1;P2;durP2;ratioP2
16662;SDS011;8445;51.270;9.434;2024-03-17T00:00:24;9.30;;;7.50;;
16662;SDS011;8445;51.270;9.434;2024-03-17T00:02:50;6.73;;;6.40;;
16662;SDS011;8445;51.270;9.434;2024-03-17T00:05:16;8.13;;;7.40;;
16662;SDS011;8445;51.270;9.434;2024-03-17T00:07:43;7.50;;;7.00;;
16662;SDS011;8445;51.270;9.434;2024-03-17T00:10:09;8.13;;;7.40;;
16662;SDS011;8445;51.270;9.434;2024-03-17T00:12:36;7.43;;;7.03;;
16662;SDS011;8445;51.270;9.434;2024-03-17T00:15:06;7.73;;;7.23;;
16662;SDS011;8445;51.270;9.434;2024-03-17T00:17:33;8.07;;;7.33;;
16662;SDS011;8445;51.270;9.434;2024-03-17T00:20:00;7.70;;;7.30;;
16662;SDS011;8445;51.270;9.434;2024-03-17T00:22:34;7.87;;;7.10;;
16662;SDS011;8445;51.270;9.434;2024-03-17T00:25:06;7.30;;;6.90;;
16662;SDS011;8445;51.270;9.434;2024-03-17T00:27:33;7.37;;;6.83;;
16662;SDS011;8445;51.270;9.434;2024-03-17T00:30:01;7.60;;;6.90;;
16662;SDS011;8445;51.270;9.434;2024-03-17T00:32:28;8.53;;;7.70;;
16662;SDS011;8445;51.270;9.434;2024-03-17T00:34:54;8.67;;;7.80;;
16662;SDS011;8445;51.270;9.434;2024-03-17T00:37:20;7.30;;;6.93;;
16662;SDS011;8445;51.270;9.434;2024-03-17T00:39:47;7.07;;;6.60;;
16662;SDS011;8445;51.270;9.434;2024-03-17T00:42:12;7.37;;;6.87;;
16662;SDS011;8445;51.270;9.434;2024-03-17T00:44:39;7.47;;;6.97;;
16662;SDS011;8445;51.270;9.434;2024-03-17T00:47:06;7.73;;;7.03;;
16662;SDS011;8445;51.270;9.434;2024-03-17T00:49:33;7.30;;;6.80;;
16662;SDS011;8445;51.270;9.434;2024-03-17T00:51:59;7.27;;;6.57;;
16662;SDS011;8445;51.270;9.434;2024-03-17T00:54:25;7.30;;;6.70;;
16662;SDS011;8445;51.270;9.434;2024-03-17T00:56:50;7.10;;;6.70;;
16662;SDS011;8445;51.270;9.434;2024-03-17T00:59:16;7.97;;;7.30;;
16662;SDS011;8445;51.270;9.434;2024-03-17T01:01:42;7.33;;;6.90;;
16662;SDS011;8445;51.270;9.434;2024-03-17T01:04:09;7.73;;;7.23;;
16662;SDS011;8445;51.270;9.434;2024-03-17T01:06:35;8.73;;;7.97;;
16662;SDS011;8445;51.270;9.434;2024-03-17T01:09:01;8.40;;;7.57;;
16662;SDS011;8445;51.270;9.434;2024-03-17T01:11:27;8.93;;;8.03;;
16662;SDS011;8445;51.270;9.434;2024-03-17T01:13:53;7.97;;;7.37;;
16662;SDS011;8445;51.270;9.434;2024-03-17T01:16:19;8.70;;;7.90;;
16662;SDS011;8445;51.270;9.434;2024-03-17T01:18:45;7.63;;;7.23;;
16662;SDS011;8445;51.270;9.434;2024-03-17T01:21:10;7.80;;;7.30;;
16662;SDS011;8445;51.270;9.434;2024-03-17T01:23:37;7.93;;;7.43;;
16662;SDS011;8445;51.270;9.434;2024-03-17T01:26:03;7.97;;;7.47;;
16662;SDS011;8445;51.270;9.434;2024-03-17T01:28:29;8.80;;;8.10;;
16662;SDS011;8445;51.270;9.434;2024-03-17T01:30:54;8.13;;;7.63;;
16662;SDS011;8445;51.270;9.434;2024-03-17T01:33:20;8.70;;;7.93;;
16662;SDS011;8445;51.270;9.434;2024-03-17T01:35:46;8.07;;;7.47;;
16662;SDS011;8445;51.270;9.434;2024-03-17T01:38:13;8.23;;;7.57;;
16662;SDS011;8445;51.270;9.434;2024-03-17T01:40:39;8.30;;;7.80;;
16662;SDS011;8445;51.270;9.434;2024-03-17T01:43:05;8.73;;;8.13;;
16662;SDS011;8445;51.270;9.434;2024-03-17T01:45:35;8.10;;;7.40;;
16662;SDS011;8445;51.270;9.434;2024-03-17T01:48:02;8.50;;;7.90;;
16662;SDS011;8445;51.270;9.434;2024-03-17T01:50:35;9.20;;;7.07;;
16662;SDS011;8445;51.270;9.434;2024-03-17T01:53:03;11.40;;;8.23;;
16662;SDS011;8445;51.270;9.434;2024-03-17T01:55:32;8.43;;;7.60;;
16662;SDS011;8445;51.270;9.434;2024-03-17T01:58:02;8.20;;;7.60;;
16662;SDS011;8445;51.270;9.434;2024-03-17T02:00:33;8.80;;;8.13;;
16662;SDS011;8445;51.270;9.434;2024-03-17T02:03:02;8.23;;;7.53;;
16662;SDS011;8445;51.270;9.434;2024-03-17T02:05:30;8.07;;;7.47;;
16662;SDS011;8445;51.270;9.434;2024-03-17T02:07:55;8.93;;;7.90;;
16662;SDS011;8445;51.270;9.434;2024-03-17T02:10:21;7.70;;;7.23;;
16662;SDS011;8445;51.270;9.434;2024-03-17T02:12:48;8.07;;;7.57;;
16662;SDS011;8445;51.270;9.434;2024-03-17T02:15:14;7.90;;;7.37;;
16662;SDS011;8445;51.270;9.434;2024-03-17T02:17:40;9.23;;;8.43;;
16662;SDS011;8445;51.270;9.434;2024-03-17T02:20:06;8.40;;;7.87;;
16662;SDS011;8445;51.270;9.434;2024-03-17T02:22:34;7.80;;;7.30;;
16662;SDS011;8445;51.270;9.434;2024-03-17T02:25:00;8.20;;;7.50;;
16662;SDS011;8445;51.270;9.434;2024-03-17T02:27:27;9.07;;;8.13;;
16662;SDS011;8445;51.270;9.434;2024-03-17T02:29:54;8.43;;;7.90;;
16662;SDS011;8445;51.270;9.434;2024-03-17T02:32:20;11.17;;;7.57;;
16662;SDS011;8445;51.270;9.434;2024-03-17T02:34:52;8.10;;;7.60;;
16662;SDS011;8445;51.270;9.434;2024-03-17T02:37:18;8.57;;;7.97;;
16662;SDS011;8445;51.270;9.434;2024-03-17T02:39:44;8.17;;;7.50;;
16662;SDS011;8445;51.270;9.434;2024-03-17T02:42:10;8.47;;;7.97;;
16662;SDS011;8445;51.270;9.434;2024-03-17T02:44:38;7.83;;;7.33;;
16662;SDS011;8445;51.270;9.434;2024-03-17T02:47:06;7.10;;;6.80;;
16662;SDS011;8445;51.270;9.434;2024-03-17T02:49:35;7.50;;;7.10;;
16662;SDS011;8445;51.270;9.434;2024-03-17T02:52:02;7.93;;;7.47;;
16662;SDS011;8445;51.270;9.434;2024-03-17T02:54:38;7.97;;;7.47;;
16662;SDS011;8445;51.270;9.434;2024-03-17T02:57:05;7.83;;;7.40;;
16662;SDS011;8445;51.270;9.434;2024-03-17T02:59:32;9.20;;;8.60;;
16662;SDS011;8445;51.270;9.434;2024-03-17T03:02:00;8.03;;;7.57;;
16662;SDS011;8445;51.270;9.434;2024-03-17T03:04:26;9.03;;;8.43;;
16662;SDS011;8445;51.270;9.434;2024-03-17T03:06:52;9.00;;;8.40;;
16662;SDS011;8445;51.270;9.434;2024-03-17T03:09:18;8.90;;;8.40;;
16662;SDS011;8445;51.270;9.434;2024-03-17T03:11:56;9.77;;;9.07;;
16662;SDS011;8445;51.270;9.434;2024-03-17T03:14:27;8.40;;;7.90;;
16662;SDS011;8445;51.270;9.434;2024-03-17T03:16:54;9.30;;;8.60;;
16662;SDS011;8445;51.270;9.434;2024-03-17T03:19:20;8.93;;;8.00;;
16662;SDS011;8445;51.270;9.434;2024-03-17T03:21:46;8.40;;;7.80;;
16662;SDS011;8445;51.270;9.434;2024-03-17T03:24:15;8.87;;;8.27;;
16662;SDS011;8445;51.270;9.434;2024-03-17T03:26:42;8.67;;;8.07;;
16662;SDS011;8445;51.270;9.434;2024-03-17T03:29:09;8.87;;;8.23;;
16662;SDS011;8445;51.270;9.434;2024-03-17T03:31:36;8.10;;;7.60;;
16662;SDS011;8445;51.270;9.434;2024-03-17T03:34:05;8.60;;;8.00;;
16662;SDS011;8445;51.270;9.434;2024-03-17T03:36:37;8.77;;;8.17;;
16662;SDS011;8445;51.270;9.434;2024-03-17T03:39:04;9.57;;;8.27;;
16662;SDS011;8445;51.270;9.434;2024-03-17T03:41:30;9.60;;;8.90;;
16662;SDS011;8445;51.270;9.434;2024-03-17T03:43:57;8.80;;;8.30;;
16662;SDS011;8445;51.270;9.434;2024-03-17T03:46:24;8.23;;;7.70;;
16662;SDS011;8445;51.270;9.434;2024-03-17T03:48:51;8.70;;;8.10;;
16662;SDS011;8445;51.270;9.434;2024-03-17T03:51:16;10.77;;;8.87;;
16662;SDS011;8445;51.270;9.434;2024-03-17T03:53:42;8.73;;;8.17;;
16662;SDS011;8445;51.270;9.434;2024-03-17T03:56:08;9.07;;;8.40;;
16662;SDS011;8445;51.270;9.434;2024-03-17T03:58:36;8.30;;;7.87;;
16662;SDS011;8445;51.270;9.434;2024-03-17T04:01:07;8.90;;;8.30;;
16662;SDS011;8445;51.270;9.434;2024-03-17T04:03:36;8.83;;;8.33;;
16662;SDS011;8445;51.270;9.434;2024-03-17T04:06:06;8.10;;;7.70;;
16662;SDS011;8445;51.270;9.434;2024-03-17T04:08:36;8.27;;;7.83;;
16662;SDS011;8445;51.270;9.434;2024-03-17T04:11:05;8.33;;;7.93;;
16662;SDS011;8445;51.270;9.434;2024-03-17T04:13:32;8.83;;;8.07;;
16662;SDS011;8445;51.270;9.434;2024-03-17T04:15:59;9.70;;;8.90;;
16662;SDS011;8445;51.270;9.434;2024-03-17T04:18:31;8.53;;;7.93;;
16662;SDS011;8445;51.270;9.434;2024-03-17T04:21:03;8.27;;;7.50;;
16662;SDS011;8445;51.270;9.434;2024-03-17T04:23:34;9.33;;;8.73;;
16662;SDS011;8445;51.270;9.434;2024-03-17T04:26:00;8.70;;;8.10;;
16662;SDS011;8445;51.270;9.434;2024-03-17T04:28:28;8.63;;;7.93;;
16662;SDS011;8445;51.270;9.434;2024-03-17T04:31:07;9.20;;;8.53;;
16662;SDS011;8445;51.270;9.434;2024-03-17T04:33:33;9.27;;;8.70;;
16662;SDS011;8445;51.270;9.434;2024-03-17T04:36:00;10.23;;;9.23;;
16662;SDS011;8445;51.270;9.434;2024-03-17T04:38:27;8.70;;;8.13;;
16662;SDS011;8445;51.270;9.434;2024-03-17T04:40:53;9.83;;;9.03;;
16662;SDS011;8445;51.270;9.434;2024-03-17T04:43:34;9.80;;;9.00;;
16662;SDS011;8445;51.270;9.434;2024-03-17T04:46:01;9.00;;;8.40;;
16662;SDS011;8445;51.270;9.434;2024-03-17T04:48:33;9.10;;;8.53;;
16662;SDS011;8445;51.270;9.434;2024-03-17T04:50:59;9.17;;;8.30;;
16662;SDS011;8445;51.270;9.434;2024-03-17T04:53:26;9.33;;;8.63;;
16662;SDS011;8445;51.270;9.434;2024-03-17T04:55:59;9.77;;;8.83;;
16662;SDS011;8445;51.270;9.434;2024-03-17T04:58:30;9.03;;;8.43;;
16662;SDS011;8445;51.270;9.434;2024-03-17T05:01:02;8.87;;;8.23;;
16662;SDS011;8445;51.270;9.434;2024-03-17T05:03:33;9.40;;;8.63;;
16662;SDS011;8445;51.270;9.434;2024-03-17T05:06:00;8.40;;;7.83;;
16662;SDS011;8445;51.270;9.434;2024-03-17T05:08:30;8.80;;;8.30;;
16662;SDS011;8445;51.270;9.434;2024-03-17T05:11:01;9.37;;;8.60;;
16662;SDS011;8445;51.270;9.434;2024-03-17T05:13:30;9.70;;;8.80;;
16662;SDS011;8445;51.270;9.434;2024-03-17T05:16:01;13.07;;;9.70;;
16662;SDS011;8445;51.270;9.434;2024-03-17T05:18:28;9.37;;;8.77;;
16662;SDS011;8445;51.270;9.434;2024-03-17T05:23:30;9.83;;;8.87;;
16662;SDS011;8445;51.270;9.434;2024-03-17T05:25:58;9.67;;;9.00;;
16662;SDS011;8445;51.270;9.434;2024-03-17T05:28:26;8.67;;;8.13;;
16662;SDS011;8445;51.270;9.434;2024-03-17T05:30:54;9.47;;;8.70;;
16662;SDS011;8445;51.270;9.434;2024-03-17T05:33:22;9.93;;;8.97;;
16662;SDS011;8445;51.270;9.434;2024-03-17T05:35:50;8.60;;;8.00;;
16662;SDS011;8445;51.270;9.434;2024-03-17T05:38:22;8.20;;;7.70;;
16662;SDS011;8445;51.270;9.434;2024-03-17T05:40:53;9.17;;;8.43;;
16662;SDS011;8445;51.270;9.434;2024-03-17T05:43:28;8.17;;;7.57;;
16662;SDS011;8445;51.270;9.434;2024-03-17T05:45:58;8.13;;;7.47;;
16662;SDS011;8445;51.270;9.434;2024-03-17T05:48:26;8.10;;;7.50;;
16662;SDS011;8445;51.270;9.434;2024-03-17T05:50:52;8.13;;;7.57;;
16662;SDS011;8445;51.270;9.434;2024-03-17T05:53:19;8.37;;;7.70;;
16662;SDS011;8445;51.270;9.434;2024-03-17T05:55:46;8.40;;;7.67;;
16662;SDS011;8445;51.270;9.434;2024-03-17T05:58:12;7.47;;;6.87;;
16662;SDS011;8445;51.270;9.434;2024-03-17T06:00:38;7.10;;;6.70;;
16662;SDS011;8445;51.270;9.434;2024-03-17T06:03:05;14.33;;;7.40;;
16662;SDS011;8445;51.270;9.434;2024-03-17T06:05:32;7.03;;;6.47;;
16662;SDS011;8445;51.270;9.434;2024-03-17T06:08:00;8.23;;;7.53;;
16662;SDS011;8445;51.270;9.434;2024-03-17T06:10:31;6.67;;;6.27;;
16662;SDS011;8445;51.270;9.434;2024-03-17T06:12:58;9.00;;;8.20;;
16662;SDS011;8445;51.270;9.434;2024-03-17T06:15:24;10.97;;;8.10;;
16662;SDS011;8445;51.270;9.434;2024-03-17T06:17:55;9.73;;;8.13;;
16662;SDS011;8445;51.270;9.434;2024-03-17T06:20:22;7.97;;;7.27;;
16662;SDS011;8445;51.270;9.434;2024-03-17T06:22:53;8.13;;;7.53;;
16662;SDS011;8445;51.270;9.434;2024-03-17T06:25:20;8.73;;;8.00;;
16662;SDS011;8445;51.270;9.434;2024-03-17T06:27:49;9.40;;;7.90;;
16662;SDS011;8445;51.270;9.434;2024-03-17T06:30:16;9.47;;;8.60;;
16662;SDS011;8445;51.270;9.434;2024-03-17T06:32:43;13.33;;;7.70;;
16662;SDS011;8445;51.270;9.434;2024-03-17T06:35:12;8.57;;;7.87;;
16662;SDS011;8445;51.270;9.434;2024-03-17T06:37:41;8.60;;;7.80;;
16662;SDS011;8445;51.270;9.434;2024-03-17T06:40:14;8.23;;;7.60;;
16662;SDS011;8445;51.270;9.434;2024-03-17T06:42:40;8.90;;;8.10;;
16662;SDS011;8445;51.270;9.434;2024-03-17T06:45:07;12.27;;;8.30;;
16662;SDS011;8445;51.270;9.434;2024-03-17T06:47:37;8.50;;;7.23;;
16662;SDS011;8445;51.270;9.434;2024-03-17T06:50:03;8.87;;;8.27;;
16662;SDS011;8445;51.270;9.434;2024-03-17T06:52:34;14.03;;;7.87;;
16662;SDS011;8445;51.270;9.434;2024-03-17T06:54:59;8.23;;;7.63;;
16662;SDS011;8445;51.270;9.434;2024-03-17T06:57:26;8.00;;;7.30;;
16662;SDS011;8445;51.270;9.434;2024-03-17T06:59:53;9.03;;;8.13;;
16662;SDS011;8445;51.270;9.434;2024-03-17T07:02:19;8.43;;;7.73;;
16662;SDS011;8445;51.270;9.434;2024-03-17T07:04:47;11.57;;;9.33;;
16662;SDS011;8445;51.270;9.434;2024-03-17T07:07:14;8.73;;;8.10;;
16662;SDS011;8445;51.270;9.434;2024-03-17T07:09:40;9.60;;;8.67;;
16662;SDS011;8445;51.270;9.434;2024-03-17T07:12:07;10.00;;;8.57;;
16662;SDS011;8445;51.270;9.434;2024-03-17T07:14:34;8.97;;;8.37;;
16662;SDS011;8445;51.270;9.434;2024-03-17T07:17:02;10.97;;;8.43;;
16662;SDS011;8445;51.270;9.434;2024-03-17T07:19:30;11.93;;;7.97;;
16662;SDS011;8445;51.270;9.434;2024-03-17T07:22:03;9.60;;;7.93;;
16662;SDS011;8445;51.270;9.434;2024-03-17T07:24:31;9.33;;;8.43;;
16662;SDS011;8445;51.270;9.434;2024-03-17T07:26:59;9.80;;;8.93;;
16662;SDS011;8445;51.270;9.434;2024-03-17T07:29:26;8.33;;;7.73;;
16662;SDS011;8445;51.270;9.434;2024-03-17T07:31:56;8.20;;;7.50;;
16662;SDS011;8445;51.270;9.434;2024-03-17T07:34:30;8.53;;;7.83;;
16662;SDS011;8445;51.270;9.434;2024-03-17T07:36:58;13.60;;;8.70;;
16662;SDS011;8445;51.270;9.434;2024-03-17T07:39:29;11.47;;;8.13;;
16662;SDS011;8445;51.270;9.434;2024-03-17T07:42:03;11.20;;;9.07;;
16662;SDS011;8445;51.270;9.434;2024-03-17T07:44:32;9.83;;;8.53;;
16662;SDS011;8445;51.270;9.434;2024-03-17T07:47:01;10.17;;;9.17;;
16662;SDS011;8445;51.270;9.434;2024-03-17T07:49:46;9.43;;;8.53;;
16662;SDS011;8445;51.270;9.434;2024-03-17T07:52:12;10.67;;;9.27;;
16662;SDS011;8445;51.270;9.434;2024-03-17T07:54:38;10.75;;;9.32;;
16662;SDS011;8445;51.270;9.434;2024-03-17T07:57:04;9.80;;;9.00;;
16662;SDS011;8445;51.270;9.434;2024-03-17T07:59:30;10.70;;;8.87;;
16662;SDS011;8445;51.270;9.434;2024-03-17T08:01:56;13.50;;;9.17;;
16662;SDS011;8445;51.270;9.434;2024-03-17T08:04:23;10.43;;;9.53;;
16662;SDS011;8445;51.270;9.434;2024-03-17T08:06:48;10.33;;;9.43;;
16662;SDS011;8445;51.270;9.434;2024-03-17T08:09:18;14.27;;;8.93;;
16662;SDS011;8445;51.270;9.434;2024-03-17T08:11:49;10.23;;;9.33;;
16662;SDS011;8445;51.270;9.434;2024-03-17T08:14:16;12.13;;;9.77;;
16662;SDS011;8445;51.270;9.434;2024-03-17T08:16:47;9.03;;;8.43;;
16662;SDS011;8445;51.270;9.434;2024-03-17T08:19:15;10.97;;;9.87;;
16662;SDS011;8445;51.270;9.434;2024-03-17T08:21:44;10.00;;;9.07;;
16662;SDS011;8445;51.270;9.434;2024-03-17T08:24:20;9.77;;;9.07;;
16662;SDS011;8445;51.270;9.434;2024-03-17T08:26:47;10.23;;;9.33;;
16662;SDS011;8445;51.270;9.434;2024-03-17T08:29:14;12.30;;;11.10;;
16662;SDS011;8445;51.270;9.434;2024-03-17T08:31:42;11.07;;;10.13;;
16662;SDS011;8445;51.270;9.434;2024-03-17T08:34:15;10.87;;;9.83;;
16662;SDS011;8445;51.270;9.434;2024-03-17T08:36:42;9.73;;;8.87;;
16662;SDS011;8445;51.270;9.434;2024-03-17T08:39:08;10.97;;;10.03;;
16662;SDS011;8445;51.270;9.434;2024-03-17T08:41:36;9.83;;;8.93;;
16662;SDS011;8445;51.270;9.434;2024-03-17T08:44:05;10.77;;;9.83;;
16662;SDS011;8445;51.270;9.434;2024-03-17T08:46:31;10.97;;;9.97;;
16662;SDS011;8445;51.270;9.434;2024-03-17T08:48:57;13.40;;;9.77;;
16662;SDS011;8445;51.270;9.434;2024-03-17T08:51:23;11.43;;;9.97;;
16662;SDS011;8445;51.270;9.434;2024-03-17T08:53:49;11.32;;;10.25;;
16662;SDS011;8445;51.270;9.434;2024-03-17T08:56:15;13.63;;;10.83;;
16662;SDS011;8445;51.270;9.434;2024-03-17T08:58:42;14.83;;;11.23;;
16662;SDS011;8445;51.270;9.434;2024-03-17T09:01:20;12.43;;;10.27;;
16662;SDS011;8445;51.270;9.434;2024-03-17T09:03:48;14.02;;;9.90;;
16662;SDS011;8445;51.270;9.434;2024-03-17T09:06:22;12.10;;;10.80;;
16662;SDS011;8445;51.270;9.434;2024-03-17T09:08:51;12.90;;;10.27;;
16662;SDS011;8445;51.270;9.434;2024-03-17T09:11:19;11.63;;;10.53;;
16662;SDS011;8445;51.270;9.434;2024-03-17T09:13:51;11.70;;;10.60;;
16662;SDS011;8445;51.270;9.434;2024-03-17T09:16:21;11.67;;;10.50;;
16662;SDS011;8445;51.270;9.434;2024-03-17T09:18:52;12.10;;;10.93;;
16662;SDS011;8445;51.270;9.434;2024-03-17T09:21:23;11.20;;;9.60;;
16662;SDS011;8445;51.270;9.434;2024-03-17T09:23:51;12.50;;;11.20;;
16662;SDS011;8445;51.270;9.434;2024-03-17T09:26:20;15.85;;;10.07;;
16662;SDS011;8445;51.270;9.434;2024-03-17T09:28:47;11.30;;;10.30;;
16662;SDS011;8445;51.270;9.434;2024-03-17T09:31:13;12.50;;;10.90;;
16662;SDS011;8445;51.270;9.434;2024-03-17T09:33:39;10.55;;;9.73;;
16662;SDS011;8445;51.270;9.434;2024-03-17T09:36:05;10.98;;;9.75;;
16662;SDS011;8445;51.270;9.434;2024-03-17T09:38:36;17.83;;;10.68;;
16662;SDS011;8445;51.270;9.434;2024-03-17T09:41:03;11.18;;;10.23;;
16662;SDS011;8445;51.270;9.434;2024-03-17T09:43:33;11.50;;;10.40;;
16662;SDS011;8445;51.270;9.434;2024-03-17T09:46:04;37.25;;;20.75;;
16662;SDS011;8445;51.270;9.434;2024-03-17T09:48:30;16.40;;;11.05;;
16662;SDS011;8445;51.270;9.434;2024-03-17T09:50:57;10.32;;;9.32;;
16662;SDS011;8445;51.270;9.434;2024-03-17T09:53:27;11.00;;;10.02;;
16662;SDS011;8445;51.270;9.434;2024-03-17T09:55:58;12.02;;;10.95;;
16662;SDS011;8445;51.270;9.434;2024-03-17T09:58:31;12.02;;;10.93;;
16662;SDS011;8445;51.270;9.434;2024-03-17T10:00:57;11.57;;;10.43;;
16662;SDS011;8445;51.270;9.434;2024-03-17T10:03:39;12.40;;;10.45;;
16662;SDS011;8445;51.270;9.434;2024-03-17T10:06:14;11.57;;;10.60;;
16662;SDS011;8445;51.270;9.434;2024-03-17T10:11:19;12.25;;;10.90;;
16662;SDS011;8445;51.270;9.434;2024-03-17T10:13:59;12.07;;;10.88;;
16662;SDS011;8445;51.270;9.434;2024-03-17T10:16:33;12.05;;;10.57;;
16662;SDS011;8445;51.270;9.434;2024-03-17T10:21:40;11.77;;;10.55;;
16662;SDS011;8445;51.270;9.434;2024-03-17T10:24:11;12.00;;;10.90;;
16662;SDS011;8445;51.270;9.434;2024-03-17T10:26:50;13.18;;;11.95;;
16662;SDS011;8445;51.270;9.434;2024-03-17T10:32:04;12.43;;;11.00;;
16662;SDS011;8445;51.270;9.434;2024-03-17T10:34:38;12.38;;;11.18;;
16662;SDS011;8445;51.270;9.434;2024-03-17T10:37:06;12.68;;;11.55;;
16662;SDS011;8445;51.270;9.434;2024-03-17T10:39:36;14.05;;;11.50;;
16662;SDS011;8445;51.270;9.434;2024-03-17T10:42:04;11.95;;;10.93;;
16662;SDS011;8445;51.270;9.434;2024-03-17T10:44:34;13.70;;;10.80;;
16662;SDS011;8445;51.270;9.434;2024-03-17T10:47:29;12.40;;;10.95;;
16662;SDS011;8445;51.270;9.434;2024-03-17T10:49:56;11.40;;;10.32;;
16662;SDS011;8445;51.270;9.434;2024-03-17T10:52:28;12.00;;;10.23;;
16662;SDS011;8445;51.270;9.434;2024-03-17T10:55:01;10.60;;;9.52;;
16662;SDS011;8445;51.270;9.434;2024-03-17T11:00:02;10.57;;;9.65;;
16662;SDS011;8445;51.270;9.434;2024-03-17T11:02:34;11.18;;;10.00;;
16662;SDS011;8445;51.270;9.434;2024-03-17T11:07:39;10.30;;;9.43;;
16662;SDS011;8445;51.270;9.434;2024-03-17T11:10:14;10.77;;;9.88;;
16662;SDS011;8445;51.270;9.434;2024-03-17T11:12:56;10.18;;;9.38;;
16662;SDS011;8445;51.270;9.434;2024-03-17T11:23:59;10.50;;;9.50;;
16662;SDS011;8445;51.270;9.434;2024-03-17T11:26:29;10.82;;;9.90;;
16662;SDS011;8445;51.270;9.434;2024-03-17T11:28:58;14.52;;;10.10;;
16662;SDS011;8445;51.270;9.434;2024-03-17T11:31:36;11.77;;;10.57;;
16662;SDS011;8445;51.270;9.434;2024-03-17T11:37:02;10.48;;;9.55;;
16662;SDS011;8445;51.270;9.434;2024-03-17T11:42:27;10.50;;;9.52;;
16662;SDS011;8445;51.270;9.434;2024-03-17T11:45:02;10.65;;;9.75;;
16662;SDS011;8445;51.270;9.434;2024-03-17T11:47:34;11.02;;;10.02;;
16662;SDS011;8445;51.270;9.434;2024-03-17T11:50:06;10.88;;;9.90;;
16662;SDS011;8445;51.270;9.434;2024-03-17T11:52:37;10.57;;;9.60;;
16662;SDS011;8445;51.270;9.434;2024-03-17T11:55:14;11.30;;;10.40;;
16662;SDS011;8445;51.270;9.434;2024-03-17T11:57:43;11.98;;;10.60;;
16662;SDS011;8445;51.270;9.434;2024-03-17T12:00:23;11.27;;;10.38;;
16662;SDS011;8445;51.270;9.434;2024-03-17T12:02:50;10.95;;;9.95;;
16662;SDS011;8445;51.270;9.434;2024-03-17T12:05:16;11.88;;;10.77;;
16662;SDS011;8445;51.270;9.434;2024-03-17T12:07:43;11.18;;;9.82;;
16662;SDS011;8445;51.270;9.434;2024-03-17T12:10:12;11.00;;;10.13;;
16662;SDS011;8445;51.270;9.434;2024-03-17T12:12:41;10.38;;;9.30;;
16662;SDS011;8445;51.270;9.434;2024-03-17T12:15:19;12.38;;;11.02;;
16662;SDS011;8445;51.270;9.434;2024-03-17T12:17:51;11.23;;;10.13;;
16662;SDS011;8445;51.270;9.434;2024-03-17T12:20:19;12.77;;;10.38;;
16662;SDS011;8445;51.270;9.434;2024-03-17T12:22:46;11.02;;;10.02;;
16662;SDS011;8445;51.270;9.434;2024-03-17T12:25:16;10.85;;;9.85;;
16662;SDS011;8445;51.270;9.434;2024-03-17T12:27:46;11.68;;;10.50;;
16662;SDS011;8445;51.270;9.434;2024-03-17T12:30:14;11.98;;;10.82;;
16662;SDS011;8445;51.270;9.434;2024-03-17T12:32:43;10.15;;;9.30;;
16662;SDS011;8445;51.270;9.434;2024-03-17T12:35:14;10.85;;;9.80;;
16662;SDS011;8445;51.270;9.434;2024-03-17T12:37:43;11.88;;;10.75;;
16662;SDS011;8445;51.270;9.434;2024-03-17T12:40:21;11.48;;;10.45;;
16662;SDS011;8445;51.270;9.434;2024-03-17T12:42:48;10.93;;;9.93;;
16662;SDS011;8445;51.270;9.434;2024-03-17T12:45:19;11.27;;;10.30;;
16662;SDS011;8445;51.270;9.434;2024-03-17T12:47:47;10.75;;;9.80;;
16662;SDS011;8445;51.270;9.434;2024-03-17T12:50:16;10.52;;;9.60;;
16662;SDS011;8445;51.270;9.434;2024-03-17T12:52:51;10.90;;;9.90;;
16662;SDS011;8445;51.270;9.434;2024-03-17T12:55:19;9.75;;;8.85;;
16662;SDS011;8445;51.270;9.434;2024-03-17T13:00:57;8.52;;;7.72;;
16662;SDS011;8445;51.270;9.434;2024-03-17T13:03:33;10.25;;;8.10;;
16662;SDS011;8445;51.270;9.434;2024-03-17T13:06:01;8.93;;;8.13;;
16662;SDS011;8445;51.270;9.434;2024-03-17T13:08:31;9.35;;;8.55;;
16662;SDS011;8445;51.270;9.434;2024-03-17T13:11:00;10.20;;;9.13;;
16662;SDS011;8445;51.270;9.434;2024-03-17T13:13:30;11.07;;;9.27;;
16662;SDS011;8445;51.270;9.434;2024-03-17T13:15:57;9.88;;;8.90;;
16662;SDS011;8445;51.270;9.434;2024-03-17T13:18:23;9.18;;;8.38;;
16662;SDS011;8445;51.270;9.434;2024-03-17T13:20:50;9.63;;;8.68;;
16662;SDS011;8445;51.270;9.434;2024-03-17T13:23:16;9.20;;;7.13;;
16662;SDS011;8445;51.270;9.434;2024-03-17T13:25:42;8.50;;;7.78;;
16662;SDS011;8445;51.270;9.434;2024-03-17T13:28:10;9.98;;;8.27;;
16662;SDS011;8445;51.270;9.434;2024-03-17T13:30:36;8.63;;;7.93;;
16662;SDS011;8445;51.270;9.434;2024-03-17T13:33:03;9.18;;;8.32;;
16662;SDS011;8445;51.270;9.434;2024-03-17T13:35:37;8.75;;;7.93;;
16662;SDS011;8445;51.270;9.434;2024-03-17T13:38:06;10.93;;;7.55;;
16662;SDS011;8445;51.270;9.434;2024-03-17T13:40:35;8.95;;;7.88;;
16662;SDS011;8445;51.270;9.434;2024-03-17T13:43:04;8.75;;;7.95;;
16662;SDS011;8445;51.270;9.434;2024-03-17T13:45:40;9.02;;;8.13;;
16662;SDS011;8445;51.270;9.434;2024-03-17T13:48:12;8.25;;;7.60;;
16662;SDS011;8445;51.270;9.434;2024-03-17T13:50:39;9.15;;;8.27;;
16662;SDS011;8445;51.270;9.434;2024-03-17T13:53:09;8.25;;;7.55;;
16662;SDS011;8445;51.270;9.434;2024-03-17T13:55:36;8.38;;;7.68;;
16662;SDS011;8445;51.270;9.434;2024-03-17T13:58:03;8.05;;;7.35;;
16662;SDS011;8445;51.270;9.434;2024-03-17T14:00:33;8.00;;;7.40;;
16662;SDS011;8445;51.270;9.434;2024-03-17T14:03:08;9.20;;;8.25;;
16662;SDS011;8445;51.270;9.434;2024-03-17T14:05:37;9.25;;;8.38;;
16662;SDS011;8445;51.270;9.434;2024-03-17T14:08:09;9.38;;;8.38;;
16662;SDS011;8445;51.270;9.434;2024-03-17T14:10:44;9.00;;;7.53;;
16662;SDS011;8445;51.270;9.434;2024-03-17T14:13:13;8.70;;;7.55;;
16662;SDS011;8445;51.270;9.434;2024-03-17T14:15:41;8.48;;;7.60;;
16662;SDS011;8445;51.270;9.434;2024-03-17T14:18:12;7.82;;;7.22;;
16662;SDS011;8445;51.270;9.434;2024-03-17T14:20:39;9.95;;;8.23;;
16662;SDS011;8445;51.270;9.434;2024-03-17T14:23:07;9.15;;;8.13;;
16662;SDS011;8445;51.270;9.434;2024-03-17T14:25:35;8.35;;;7.55;;
16662;SDS011;8445;51.270;9.434;2024-03-17T14:28:06;8.65;;;7.93;;
16662;SDS011;8445;51.270;9.434;2024-03-17T14:30:34;9.18;;;8.30;;
16662;SDS011;8445;51.270;9.434;2024-03-17T14:33:06;9.52;;;8.23;;
16662;SDS011;8445;51.270;9.434;2024-03-17T14:35:33;9.63;;;8.38;;
16662;SDS011;8445;51.270;9.434;2024-03-17T14:37:59;9.68;;;8.80;;
16662;SDS011;8445;51.270;9.434;2024-03-17T14:40:25;9.88;;;8.10;;
16662;SDS011;8445;51.270;9.434;2024-03-17T14:42:53;8.55;;;7.75;;
16662;SDS011;8445;51.270;9.434;2024-03-17T14:45:23;8.45;;;7.07;;
16662;SDS011;8445;51.270;9.434;2024-03-17T14:47:49;9.38;;;7.35;;
16662;SDS011;8445;51.270;9.434;2024-03-17T14:50:16;7.97;;;7.22;;
16662;SDS011;8445;51.270;9.434;2024-03-17T14:52:45;10.70;;;7.13;;
16662;SDS011;8445;51.270;9.434;2024-03-17T14:55:12;7.90;;;7.13;;
16662;SDS011;8445;51.270;9.434;2024-03-17T14:57:39;7.43;;;6.72;;
16662;SDS011;8445;51.270;9.434;2024-03-17T15:00:07;9.88;;;7.47;;
16662;SDS011;8445;51.270;9.434;2024-03-17T15:02:41;8.77;;;7.32;;
16662;SDS011;8445;51.270;9.434;2024-03-17T15:05:10;8.88;;;7.72;;
16662;SDS011;8445;51.270;9.434;2024-03-17T15:07:36;7.70;;;7.00;;
16662;SDS011;8445;51.270;9.434;2024-03-17T15:10:02;8.23;;;7.53;;
16662;SDS011;8445;51.270;9.434;2024-03-17T15:12:30;8.27;;;7.45;;
16662;SDS011;8445;51.270;9.434;2024-03-17T15:14:56;8.00;;;7.30;;
16662;SDS011;8445;51.270;9.434;2024-03-17T15:17:22;8.00;;;6.70;;
16662;SDS011;8445;51.270;9.434;2024-03-17T15:19:48;7.90;;;7.20;;
16662;SDS011;8445;51.270;9.434;2024-03-17T15:22:14;10.30;;;7.72;;
16662;SDS011;8445;51.270;9.434;2024-03-17T15:24:40;7.57;;;6.00;;
16662;SDS011;8445;51.270;9.434;2024-03-17T15:27:06;7.10;;;6.50;;
16662;SDS011;8445;51.270;9.434;2024-03-17T15:29:35;6.35;;;5.90;;
16662;SDS011;8445;51.270;9.434;2024-03-17T15:32:01;8.90;;;6.80;;
16662;SDS011;8445;51.270;9.434;2024-03-17T15:34:29;7.22;;;6.53;;
16662;SDS011;8445;51.270;9.434;2024-03-17T15:36:56;7.10;;;6.50;;